sensor_id;sensor_type;location;lat;lon;timestamp;pressure;altitude;pressure_sealevel;temperature
19948;BMP180;10135;50.702;7.276;2024-03-02T06:30:45;98074.00;;;11.20
19948;BMP180;10135;50.702;7.276;2024-03-02T06:32:45;98072.00;;;11.20
19948;BMP180;10135;50.702;7.276;2024-03-02T06:34:46;98079.00;;;11.20
19948;BMP180;10135;50.702;7.276;2024-03-02T06:36:47;98073.00;;;11.20
19948;BMP180;10135;50.702;7.276;2024-03-02T06:38:48;98083.00;;;11.20
19948;BMP180;10135;50.702;7.276;2024-03-02T06:40:49;98070.00;;;11.20
19948;BMP180;10135;50.702;7.276;2024-03-02T06:42:50;98066.00;;;11.10
19948;BMP180;10135;50.702;7.276;2024-03-02T06:44:50;98069.00;;;11.20
19948;BMP180;10135;50.702;7.276;2024-03-02T06:46:51;98082.00;;;11.20
19948;BMP180;10135;50.702;7.276;2024-03-02T06:48:52;98079.00;;;11.20
19948;BMP180;10135;50.702;7.276;2024-03-02T06:50:52;98075.00;;;11.20
19948;BMP180;10135;50.702;7.276;2024-03-02T06:52:53;98082.00;;;11.20
19948;BMP180;10135;50.702;7.276;2024-03-02T06:54:54;98076.00;;;11.30
19948;BMP180;10135;50.702;7.276;2024-03-02T06:56:54;98082.00;;;11.30
19948;BMP180;10135;50.702;7.276;2024-03-02T06:58:55;98078.00;;;11.30
19948;BMP180;10135;50.702;7.276;2024-03-02T07:00:56;98069.00;;;11.30
19948;BMP180;10135;50.702;7.276;2024-03-02T07:02:56;98073.00;;;11.30
19948;BMP180;10135;50.702;7.276;2024-03-02T07:04:57;98077.00;;;11.30
19948;BMP180;10135;50.702;7.276;2024-03-02T07:06:57;98066.00;;;11.40
19948;BMP180;10135;50.702;7.276;2024-03-02T07:08:58;98071.00;;;11.40
19948;BMP180;10135;50.702;7.276;2024-03-02T07:10:59;98071.00;;;11.40
19948;BMP180;10135;50.702;7.276;2024-03-02T07:12:59;98076.00;;;11.40
19948;BMP180;10135;50.702;7.276;2024-03-02T07:15:00;98075.00;;;11.50
19948;BMP180;10135;50.702;7.276;2024-03-02T07:17:04;98081.00;;;11.50
19948;BMP180;10135;50.702;7.276;2024-03-02T07:19:04;98077.00;;;11.50
19948;BMP180;10135;50.702;7.276;2024-03-02T07:21:05;98071.00;;;11.60
19948;BMP180;10135;50.702;7.276;2024-03-02T07:23:06;98075.00;;;11.60
19948;BMP180;10135;50.702;7.276;2024-03-02T07:25:07;98084.00;;;11.70
19948;BMP180;10135;50.702;7.276;2024-03-02T07:27:12;98091.00;;;11.70
19948;BMP180;10135;50.702;7.276;2024-03-02T07:29:13;98096.00;;;11.80
19948;BMP180;10135;50.702;7.276;2024-03-02T07:31:13;98093.00;;;11.90
19948;BMP180;10135;50.702;7.276;2024-03-02T07:33:14;98088.00;;;12.00
19948;BMP180;10135;50.702;7.276;2024-03-02T07:35:17;98100.00;;;12.10
19948;BMP180;10135;50.702;7.276;2024-03-02T07:37:18;98098.00;;;12.20
19948;BMP180;10135;50.702;7.276;2024-03-02T07:39:19;98099.00;;;12.30
19948;BMP180;10135;50.702;7.276;2024-03-02T07:41:20;98106.00;;;12.40
19948;BMP180;10135;50.702;7.276;2024-03-02T07:43:21;98116.00;;;12.50
19948;BMP180;10135;50.702;7.276;2024-03-02T07:45:22;98112.00;;;12.70
19948;BMP180;10135;50.702;7.276;2024-03-02T07:47:23;98117.00;;;12.90
19948;BMP180;10135;50.702;7.276;2024-03-02T07:49:23;98112.00;;;13.20
19948;BMP180;10135;50.702;7.276;2024-03-02T07:51:24;98115.00;;;13.50
19948;BMP180;10135;50.702;7.276;2024-03-02T07:53:28;98116.00;;;13.80
19948;BMP180;10135;50.702;7.276;2024-03-02T07:55:28;98115.00;;;14.10
19948;BMP180;10135;50.702;7.276;2024-03-02T07:57:29;98111.00;;;14.30
19948;BMP180;10135;50.702;7.276;2024-03-02T07:59:30;98114.00;;;14.50
19948;BMP180;10135;50.702;7.276;2024-03-02T08:01:32;98113.00;;;14.70
19948;BMP180;10135;50.702;7.276;2024-03-02T08:03:32;98114.00;;;14.90
19948;BMP180;10135;50.702;7.276;2024-03-02T08:05:34;98111.00;;;15.10
19948;BMP180;10135;50.702;7.276;2024-03-02T08:07:35;98101.00;;;15.20
19948;BMP180;10135;50.702;7.276;2024-03-02T08:09:36;98099.00;;;15.30
19948;BMP180;10135;50.702;7.276;2024-03-02T08:11:36;98102.00;;;15.30
19948;BMP180;10135;50.702;7.276;2024-03-02T08:13:40;98111.00;;;15.30
19948;BMP180;10135;50.702;7.276;2024-03-02T08:15:41;98105.00;;;15.30
19948;BMP180;10135;50.702;7.276;2024-03-02T08:17:42;98109.00;;;15.40
19948;BMP180;10135;50.702;7.276;2024-03-02T08:19:48;98116.00;;;15.50
19948;BMP180;10135;50.702;7.276;2024-03-02T08:21:49;98119.00;;;15.70
19948;BMP180;10135;50.702;7.276;2024-03-02T08:23:50;98118.00;;;15.80
19948;BMP180;10135;50.702;7.276;2024-03-02T08:25:51;98112.00;;;15.90
19948;BMP180;10135;50.702;7.276;2024-03-02T08:27:52;98112.00;;;15.90
19948;BMP180;10135;50.702;7.276;2024-03-02T08:29:53;98111.00;;;15.90
19948;BMP180;10135;50.702;7.276;2024-03-02T08:31:54;98108.00;;;15.80
19948;BMP180;10135;50.702;7.276;2024-03-02T08:33:55;98110.00;;;15.80
19948;BMP180;10135;50.702;7.276;2024-03-02T08:35:57;98116.00;;;15.90
19948;BMP180;10135;50.702;7.276;2024-03-02T08:37:58;98120.00;;;16.00
19948;BMP180;10135;50.702;7.276;2024-03-02T08:39:59;98116.00;;;16.10
19948;BMP180;10135;50.702;7.276;2024-03-02T08:42:00;98124.00;;;16.10
19948;BMP180;10135;50.702;7.276;2024-03-02T08:44:01;98119.00;;;16.20
19948;BMP180;10135;50.702;7.276;2024-03-02T08:46:01;98118.00;;;16.30
19948;BMP180;10135;50.702;7.276;2024-03-02T08:48:03;98118.00;;;16.50
19948;BMP180;10135;50.702;7.276;2024-03-02T08:50:04;98120.00;;;16.70
19948;BMP180;10135;50.702;7.276;2024-03-02T08:52:06;98119.00;;;16.90
19948;BMP180;10135;50.702;7.276;2024-03-02T08:54:10;98120.00;;;17.20
19948;BMP180;10135;50.702;7.276;2024-03-02T08:56:10;98121.00;;;17.50
19948;BMP180;10135;50.702;7.276;2024-03-02T08:58:12;98130.00;;;17.70
19948;BMP180;10135;50.702;7.276;2024-03-02T09:00:13;98138.00;;;17.80
19948;BMP180;10135;50.702;7.276;2024-03-02T09:02:14;98127.00;;;18.00
19948;BMP180;10135;50.702;7.276;2024-03-02T09:04:15;98130.00;;;18.10
19948;BMP180;10135;50.702;7.276;2024-03-02T09:06:16;98125.00;;;18.30
19948;BMP180;10135;50.702;7.276;2024-03-02T09:08:21;98120.00;;;18.40
19948;BMP180;10135;50.702;7.276;2024-03-02T09:10:22;98135.00;;;18.60
19948;BMP180;10135;50.702;7.276;2024-03-02T09:12:23;98125.00;;;18.80
19948;BMP180;10135;50.702;7.276;2024-03-02T09:14:23;98124.00;;;19.00
19948;BMP180;10135;50.702;7.276;2024-03-02T09:16:24;98122.00;;;19.20
19948;BMP180;10135;50.702;7.276;2024-03-02T09:18:31;98118.00;;;19.20
19948;BMP180;10135;50.702;7.276;2024-03-02T09:20:32;98111.00;;;19.40
19948;BMP180;10135;50.702;7.276;2024-03-02T09:22:32;98115.00;;;19.50
19948;BMP180;10135;50.702;7.276;2024-03-02T09:24:33;98124.00;;;19.60
19948;BMP180;10135;50.702;7.276;2024-03-02T09:26:34;98118.00;;;19.70
19948;BMP180;10135;50.702;7.276;2024-03-02T09:28:34;98114.00;;;19.70
19948;BMP180;10135;50.702;7.276;2024-03-02T09:30:35;98107.00;;;19.70
19948;BMP180;10135;50.702;7.276;2024-03-02T09:32:37;98107.00;;;19.70
19948;BMP180;10135;50.702;7.276;2024-03-02T09:34:37;98110.00;;;19.70
19948;BMP180;10135;50.702;7.276;2024-03-02T09:36:38;98115.00;;;19.60
19948;BMP180;10135;50.702;7.276;2024-03-02T09:38:39;98104.00;;;19.50
19948;BMP180;10135;50.702;7.276;2024-03-02T09:40:41;98110.00;;;19.40
19948;BMP180;10135;50.702;7.276;2024-03-02T09:42:45;98103.00;;;19.30
19948;BMP180;10135;50.702;7.276;2024-03-02T09:44:47;98109.00;;;19.10
19948;BMP180;10135;50.702;7.276;2024-03-02T09:46:51;98117.00;;;19.00
19948;BMP180;10135;50.702;7.276;2024-03-02T09:48:52;98116.00;;;18.80
19948;BMP180;10135;50.702;7.276;2024-03-02T09:50:53;98112.00;;;18.70
19948;BMP180;10135;50.702;7.276;2024-03-02T09:52:54;98114.00;;;18.60
19948;BMP180;10135;50.702;7.276;2024-03-02T09:54:55;98116.00;;;18.50
19948;BMP180;10135;50.702;7.276;2024-03-02T09:56:55;98106.00;;;18.40
19948;BMP180;10135;50.702;7.276;2024-03-02T09:58:56;98117.00;;;18.30
19948;BMP180;10135;50.702;7.276;2024-03-02T10:00:57;98116.00;;;18.20
19948;BMP180;10135;50.702;7.276;2024-03-02T10:02:57;98117.00;;;18.10
19948;BMP180;10135;50.702;7.276;2024-03-02T10:04:59;98107.00;;;17.90
19948;BMP180;10135;50.702;7.276;2024-03-02T10:07:19;98116.00;;;17.80
19948;BMP180;10135;50.702;7.276;2024-03-02T10:09:28;98119.00;;;17.70
19948;BMP180;10135;50.702;7.276;2024-03-02T10:11:31;98111.00;;;17.60
19948;BMP180;10135;50.702;7.276;2024-03-02T10:13:33;98119.00;;;17.50
19948;BMP180;10135;50.702;7.276;2024-03-02T10:15:36;98116.00;;;17.40
19948;BMP180;10135;50.702;7.276;2024-03-02T10:17:37;98121.00;;;17.30
19948;BMP180;10135;50.702;7.276;2024-03-02T10:19:39;98121.00;;;17.20
19948;BMP180;10135;50.702;7.276;2024-03-02T10:21:40;98117.00;;;17.20
19948;BMP180;10135;50.702;7.276;2024-03-02T10:23:41;98110.00;;;17.20
19948;BMP180;10135;50.702;7.276;2024-03-02T10:25:43;98120.00;;;17.20
19948;BMP180;10135;50.702;7.276;2024-03-02T10:27:44;98122.00;;;17.20
19948;BMP180;10135;50.702;7.276;2024-03-02T10:29:48;98122.00;;;17.20
19948;BMP180;10135;50.702;7.276;2024-03-02T10:31:49;98120.00;;;17.10
19948;BMP180;10135;50.702;7.276;2024-03-02T10:33:50;98125.00;;;17.10
19948;BMP180;10135;50.702;7.276;2024-03-02T10:35:50;98122.00;;;17.00
19948;BMP180;10135;50.702;7.276;2024-03-02T10:37:53;98115.00;;;17.00
19948;BMP180;10135;50.702;7.276;2024-03-02T10:39:54;98109.00;;;17.00
19948;BMP180;10135;50.702;7.276;2024-03-02T10:41:56;98104.00;;;17.00
19948;BMP180;10135;50.702;7.276;2024-03-02T10:43:59;98109.00;;;17.00
19948;BMP180;10135;50.702;7.276;2024-03-02T10:46:00;98106.00;;;17.00
19948;BMP180;10135;50.702;7.276;2024-03-02T10:48:02;98098.00;;;17.10
19948;BMP180;10135;50.702;7.276;2024-03-02T10:50:05;98091.00;;;17.10
19948;BMP180;10135;50.702;7.276;2024-03-02T10:52:09;98102.00;;;17.10
19948;BMP180;10135;50.702;7.276;2024-03-02T10:54:09;98102.00;;;17.10
19948;BMP180;10135;50.702;7.276;2024-03-02T10:56:16;98093.00;;;17.10
19948;BMP180;10135;50.702;7.276;2024-03-02T10:58:25;98084.00;;;17.10
19948;BMP180;10135;50.702;7.276;2024-03-02T11:00:34;98089.00;;;17.10
19948;BMP180;10135;50.702;7.276;2024-03-02T11:02:37;98098.00;;;17.10
19948;BMP180;10135;50.702;7.276;2024-03-02T11:04:41;98086.00;;;17.10
19948;BMP180;10135;50.702;7.276;2024-03-02T11:06:49;98092.00;;;17.00
19948;BMP180;10135;50.702;7.276;2024-03-02T11:08:53;98084.00;;;17.00
19948;BMP180;10135;50.702;7.276;2024-03-02T11:11:06;98082.00;;;16.90
19948;BMP180;10135;50.702;7.276;2024-03-02T11:13:12;98086.00;;;16.90
19948;BMP180;10135;50.702;7.276;2024-03-02T11:15:18;98101.00;;;16.90
19948;BMP180;10135;50.702;7.276;2024-03-02T11:17:23;98086.00;;;16.90
19948;BMP180;10135;50.702;7.276;2024-03-02T11:19:25;98094.00;;;16.90
19948;BMP180;10135;50.702;7.276;2024-03-02T11:21:26;98101.00;;;16.80
19948;BMP180;10135;50.702;7.276;2024-03-02T11:23:34;98093.00;;;16.80
19948;BMP180;10135;50.702;7.276;2024-03-02T11:25:36;98097.00;;;16.80
19948;BMP180;10135;50.702;7.276;2024-03-02T11:29:46;98094.00;;;16.70
19948;BMP180;10135;50.702;7.276;2024-03-02T11:32:00;98096.00;;;16.60
19948;BMP180;10135;50.702;7.276;2024-03-02T11:34:30;98099.00;;;16.60
19948;BMP180;10135;50.702;7.276;2024-03-02T11:36:31;98094.00;;;16.60
19948;BMP180;10135;50.702;7.276;2024-03-02T11:38:33;98093.00;;;16.60
19948;BMP180;10135;50.702;7.276;2024-03-02T11:40:34;98094.00;;;16.60
19948;BMP180;10135;50.702;7.276;2024-03-02T11:42:34;98089.00;;;16.60
19948;BMP180;10135;50.702;7.276;2024-03-02T11:44:36;98088.00;;;16.60
19948;BMP180;10135;50.702;7.276;2024-03-02T11:46:39;98082.00;;;16.60
19948;BMP180;10135;50.702;7.276;2024-03-02T11:48:41;98071.00;;;16.60
19948;BMP180;10135;50.702;7.276;2024-03-02T11:50:50;98066.00;;;16.60
19948;BMP180;10135;50.702;7.276;2024-03-02T11:52:50;98062.00;;;16.70
19948;BMP180;10135;50.702;7.276;2024-03-02T11:54:53;98058.00;;;16.70
19948;BMP180;10135;50.702;7.276;2024-03-02T11:56:54;98063.00;;;16.70
19948;BMP180;10135;50.702;7.276;2024-03-02T11:58:55;98067.00;;;16.80
19948;BMP180;10135;50.702;7.276;2024-03-02T12:00:56;98078.00;;;16.80
19948;BMP180;10135;50.702;7.276;2024-03-02T12:03:08;98078.00;;;16.80
19948;BMP180;10135;50.702;7.276;2024-03-02T12:05:09;98063.00;;;16.80
19948;BMP180;10135;50.702;7.276;2024-03-02T12:07:10;98071.00;;;16.80
19948;BMP180;10135;50.702;7.276;2024-03-02T12:09:12;98059.00;;;16.70
19948;BMP180;10135;50.702;7.276;2024-03-02T12:11:15;98062.00;;;16.70
19948;BMP180;10135;50.702;7.276;2024-03-02T12:13:16;98065.00;;;16.80
19948;BMP180;10135;50.702;7.276;2024-03-02T12:15:16;98054.00;;;16.80
19948;BMP180;10135;50.702;7.276;2024-03-02T12:17:17;98047.00;;;16.70
19948;BMP180;10135;50.702;7.276;2024-03-02T12:19:18;98053.00;;;16.70
19948;BMP180;10135;50.702;7.276;2024-03-02T12:21:21;98037.00;;;16.80
19948;BMP180;10135;50.702;7.276;2024-03-02T12:23:21;98040.00;;;16.80
19948;BMP180;10135;50.702;7.276;2024-03-02T12:25:24;98040.00;;;16.80
19948;BMP180;10135;50.702;7.276;2024-03-02T12:27:25;98040.00;;;16.90
19948;BMP180;10135;50.702;7.276;2024-03-02T12:29:26;98038.00;;;16.90
19948;BMP180;10135;50.702;7.276;2024-03-02T12:31:27;98035.00;;;16.90
19948;BMP180;10135;50.702;7.276;2024-03-02T12:33:28;98037.00;;;16.80
19948;BMP180;10135;50.702;7.276;2024-03-02T12:35:30;98044.00;;;16.80
19948;BMP180;10135;50.702;7.276;2024-03-02T12:37:32;98033.00;;;16.80
19948;BMP180;10135;50.702;7.276;2024-03-02T12:39:33;98025.00;;;16.80
19948;BMP180;10135;50.702;7.276;2024-03-02T12:41:33;98022.00;;;16.90
19948;BMP180;10135;50.702;7.276;2024-03-02T12:43:34;98018.00;;;16.90
19948;BMP180;10135;50.702;7.276;2024-03-02T12:45:35;98006.00;;;16.90
19948;BMP180;10135;50.702;7.276;2024-03-02T12:47:37;98003.00;;;17.00
19948;BMP180;10135;50.702;7.276;2024-03-02T12:49:40;98004.00;;;17.00
19948;BMP180;10135;50.702;7.276;2024-03-02T12:51:42;98002.00;;;17.10
19948;BMP180;10135;50.702;7.276;2024-03-02T12:53:42;97999.00;;;17.20
19948;BMP180;10135;50.702;7.276;2024-03-02T12:55:44;97993.00;;;17.20
19948;BMP180;10135;50.702;7.276;2024-03-02T12:57:45;98009.00;;;17.30
19948;BMP180;10135;50.702;7.276;2024-03-02T12:59:46;98011.00;;;17.30
19948;BMP180;10135;50.702;7.276;2024-03-02T13:01:54;98007.00;;;17.30
19948;BMP180;10135;50.702;7.276;2024-03-02T13:03:58;98004.00;;;17.40
19948;BMP180;10135;50.702;7.276;2024-03-02T13:05:59;98010.00;;;17.40
19948;BMP180;10135;50.702;7.276;2024-03-02T13:08:00;98004.00;;;17.50
19948;BMP180;10135;50.702;7.276;2024-03-02T13:10:05;98001.00;;;17.50
19948;BMP180;10135;50.702;7.276;2024-03-02T13:12:06;97993.00;;;17.50
19948;BMP180;10135;50.702;7.276;2024-03-02T13:14:07;98000.00;;;17.50
19948;BMP180;10135;50.702;7.276;2024-03-02T13:16:12;97993.00;;;17.50
19948;BMP180;10135;50.702;7.276;2024-03-02T13:18:20;97990.00;;;17.50
19948;BMP180;10135;50.702;7.276;2024-03-02T13:20:20;97989.00;;;17.50
19948;BMP180;10135;50.702;7.276;2024-03-02T13:22:21;97972.00;;;17.50
19948;BMP180;10135;50.702;7.276;2024-03-02T13:24:22;97978.00;;;17.50
19948;BMP180;10135;50.702;7.276;2024-03-02T13:26:26;97979.00;;;17.40
19948;BMP180;10135;50.702;7.276;2024-03-02T13:28:27;97977.00;;;17.40
19948;BMP180;10135;50.702;7.276;2024-03-02T13:30:28;97980.00;;;17.50
19948;BMP180;10135;50.702;7.276;2024-03-02T13:32:28;97980.00;;;17.50
19948;BMP180;10135;50.702;7.276;2024-03-02T13:34:29;97968.00;;;17.50
19948;BMP180;10135;50.702;7.276;2024-03-02T13:36:30;97972.00;;;17.50
19948;BMP180;10135;50.702;7.276;2024-03-02T13:38:30;97980.00;;;17.50
19948;BMP180;10135;50.702;7.276;2024-03-02T13:40:31;97976.00;;;17.50
19948;BMP180;10135;50.702;7.276;2024-03-02T13:42:35;97986.00;;;17.50
19948;BMP180;10135;50.702;7.276;2024-03-02T13:44:37;97977.00;;;17.50
19948;BMP180;10135;50.702;7.276;2024-03-02T13:46:37;97977.00;;;17.50
19948;BMP180;10135;50.702;7.276;2024-03-02T13:48:38;97972.00;;;17.50
19948;BMP180;10135;50.702;7.276;2024-03-02T13:50:39;97972.00;;;17.60
19948;BMP180;10135;50.702;7.276;2024-03-02T13:52:39;97964.00;;;17.60
19948;BMP180;10135;50.702;7.276;2024-03-02T13:54:41;97973.00;;;17.60
19948;BMP180;10135;50.702;7.276;2024-03-02T13:56:42;97968.00;;;17.60
19948;BMP180;10135;50.702;7.276;2024-03-02T13:58:43;97960.00;;;17.60
19948;BMP180;10135;50.702;7.276;2024-03-02T14:00:44;97966.00;;;17.60
19948;BMP180;10135;50.702;7.276;2024-03-02T14:02:46;97965.00;;;17.60
19948;BMP180;10135;50.702;7.276;2024-03-02T14:04:48;97968.00;;;17.60
19948;BMP180;10135;50.702;7.276;2024-03-02T14:06:50;97963.00;;;17.60
19948;BMP180;10135;50.702;7.276;2024-03-02T14:08:50;97952.00;;;17.60
19948;BMP180;10135;50.702;7.276;2024-03-02T14:10:51;97947.00;;;17.70
19948;BMP180;10135;50.702;7.276;2024-03-02T14:12:52;97948.00;;;17.70
19948;BMP180;10135;50.702;7.276;2024-03-02T14:14:52;97946.00;;;17.70
19948;BMP180;10135;50.702;7.276;2024-03-02T14:16:56;97940.00;;;17.70
19948;BMP180;10135;50.702;7.276;2024-03-02T14:18:56;97944.00;;;17.70
19948;BMP180;10135;50.702;7.276;2024-03-02T14:20:57;97941.00;;;17.70
19948;BMP180;10135;50.702;7.276;2024-03-02T14:22:58;97947.00;;;17.70
19948;BMP180;10135;50.702;7.276;2024-03-02T14:25:00;97938.00;;;17.70
19948;BMP180;10135;50.702;7.276;2024-03-02T14:27:00;97939.00;;;17.70
19948;BMP180;10135;50.702;7.276;2024-03-02T14:29:04;97937.00;;;17.70
19948;BMP180;10135;50.702;7.276;2024-03-02T14:31:05;97927.00;;;17.70
19948;BMP180;10135;50.702;7.276;2024-03-02T14:33:06;97935.00;;;17.70
19948;BMP180;10135;50.702;7.276;2024-03-02T14:35:07;97935.00;;;17.60
19948;BMP180;10135;50.702;7.276;2024-03-02T14:37:10;97935.00;;;17.60
19948;BMP180;10135;50.702;7.276;2024-03-02T14:39:11;97927.00;;;17.60
19948;BMP180;10135;50.702;7.276;2024-03-02T14:41:12;97931.00;;;17.60
19948;BMP180;10135;50.702;7.276;2024-03-02T14:43:13;97927.00;;;17.60
19948;BMP180;10135;50.702;7.276;2024-03-02T14:45:14;97923.00;;;17.60
19948;BMP180;10135;50.702;7.276;2024-03-02T14:47:15;97928.00;;;17.60
19948;BMP180;10135;50.702;7.276;2024-03-02T14:49:16;97923.00;;;17.50
19948;BMP180;10135;50.702;7.276;2024-03-02T14:51:16;97927.00;;;17.50
19948;BMP180;10135;50.702;7.276;2024-03-02T14:53:17;97915.00;;;17.50
19948;BMP180;10135;50.702;7.276;2024-03-02T14:55:18;97917.00;;;17.50
19948;BMP180;10135;50.702;7.276;2024-03-02T14:57:19;97915.00;;;17.50
19948;BMP180;10135;50.702;7.276;2024-03-02T14:59:19;97912.00;;;17.50
19948;BMP180;10135;50.702;7.276;2024-03-02T15:01:20;97910.00;;;17.50
19948;BMP180;10135;50.702;7.276;2024-03-02T15:03:23;97911.00;;;17.50
19948;BMP180;10135;50.702;7.276;2024-03-02T15:05:23;97914.00;;;17.50
19948;BMP180;10135;50.702;7.276;2024-03-02T15:07:27;97917.00;;;17.50
19948;BMP180;10135;50.702;7.276;2024-03-02T15:09:27;97904.00;;;17.40
19948;BMP180;10135;50.702;7.276;2024-03-02T15:11:28;97911.00;;;17.40
19948;BMP180;10135;50.702;7.276;2024-03-02T15:13:29;97912.00;;;17.40
19948;BMP180;10135;50.702;7.276;2024-03-02T15:15:30;97907.00;;;17.40
19948;BMP180;10135;50.702;7.276;2024-03-02T15:17:31;97914.00;;;17.40
19948;BMP180;10135;50.702;7.276;2024-03-02T15:19:31;97907.00;;;17.40
19948;BMP180;10135;50.702;7.276;2024-03-02T15:21:32;97907.00;;;17.40
19948;BMP180;10135;50.702;7.276;2024-03-02T15:23:33;97906.00;;;17.40
19948;BMP180;10135;50.702;7.276;2024-03-02T15:25:34;97906.00;;;17.40
19948;BMP180;10135;50.702;7.276;2024-03-02T15:27:35;97905.00;;;17.40
19948;BMP180;10135;50.702;7.276;2024-03-02T15:29:36;97903.00;;;17.40
19948;BMP180;10135;50.702;7.276;2024-03-02T15:31:36;97901.00;;;17.40
19948;BMP180;10135;50.702;7.276;2024-03-02T15:33:37;97907.00;;;17.40
19948;BMP180;10135;50.702;7.276;2024-03-02T15:35:38;97892.00;;;17.40
19948;BMP180;10135;50.702;7.276;2024-03-02T15:37:38;97894.00;;;17.40
19948;BMP180;10135;50.702;7.276;2024-03-02T15:39:39;97908.00;;;17.40
19948;BMP180;10135;50.702;7.276;2024-03-02T15:41:40;97892.00;;;17.40
19948;BMP180;10135;50.702;7.276;2024-03-02T15:43:43;97888.00;;;17.40
19948;BMP180;10135;50.702;7.276;2024-03-02T15:45:43;97892.00;;;17.40
19948;BMP180;10135;50.702;7.276;2024-03-02T15:47:44;97890.00;;;17.40
19948;BMP180;10135;50.702;7.276;2024-03-02T15:49:45;97886.00;;;17.30
19948;BMP180;10135;50.702;7.276;2024-03-02T15:51:45;97890.00;;;17.40
19948;BMP180;10135;50.702;7.276;2024-03-02T15:53:46;97890.00;;;17.30
19948;BMP180;10135;50.702;7.276;2024-03-02T15:55:47;97889.00;;;17.30
19948;BMP180;10135;50.702;7.276;2024-03-02T15:57:47;97883.00;;;17.30
19948;BMP180;10135;50.702;7.276;2024-03-02T15:59:48;97881.00;;;17.30
19948;BMP180;10135;50.702;7.276;2024-03-02T16:01:50;97886.00;;;17.30
19948;BMP180;10135;50.702;7.276;2024-03-02T16:03:50;97896.00;;;17.20
19948;BMP180;10135;50.702;7.276;2024-03-02T16:05:51;97892.00;;;17.20
19948;BMP180;10135;50.702;7.276;2024-03-02T16:07:51;97885.00;;;17.20
19948;BMP180;10135;50.702;7.276;2024-03-02T16:09:52;97886.00;;;17.20
19948;BMP180;10135;50.702;7.276;2024-03-02T16:11:53;97888.00;;;17.20
19948;BMP180;10135;50.702;7.276;2024-03-02T16:13:53;97880.00;;;17.20
19948;BMP180;10135;50.702;7.276;2024-03-02T16:15:54;97880.00;;;17.20
19948;BMP180;10135;50.702;7.276;2024-03-02T16:17:55;97884.00;;;17.20
19948;BMP180;10135;50.702;7.276;2024-03-02T16:19:55;97881.00;;;17.20
19948;BMP180;10135;50.702;7.276;2024-03-02T16:21:58;97880.00;;;17.10
19948;BMP180;10135;50.702;7.276;2024-03-02T16:23:59;97889.00;;;17.10
19948;BMP180;10135;50.702;7.276;2024-03-02T16:26:00;97884.00;;;17.10
19948;BMP180;10135;50.702;7.276;2024-03-02T16:28:01;97886.00;;;17.10
19948;BMP180;10135;50.702;7.276;2024-03-02T16:30:04;97881.00;;;17.10
19948;BMP180;10135;50.702;7.276;2024-03-02T16:32:05;97881.00;;;17.10
19948;BMP180;10135;50.702;7.276;2024-03-02T16:34:06;97883.00;;;17.10
19948;BMP180;10135;50.702;7.276;2024-03-02T16:36:08;97874.00;;;17.10
19948;BMP180;10135;50.702;7.276;2024-03-02T16:38:08;97874.00;;;17.10
19948;BMP180;10135;50.702;7.276;2024-03-02T16:40:11;97863.00;;;17.10
19948;BMP180;10135;50.702;7.276;2024-03-02T16:42:13;97864.00;;;17.10
19948;BMP180;10135;50.702;7.276;2024-03-02T16:44:15;97857.00;;;17.00
19948;BMP180;10135;50.702;7.276;2024-03-02T16:46:16;97859.00;;;17.00
19948;BMP180;10135;50.702;7.276;2024-03-02T16:48:16;97856.00;;;17.00
19948;BMP180;10135;50.702;7.276;2024-03-02T16:50:18;97852.00;;;17.00
19948;BMP180;10135;50.702;7.276;2024-03-02T16:52:18;97854.00;;;17.00
19948;BMP180;10135;50.702;7.276;2024-03-02T16:54:19;97861.00;;;17.00
19948;BMP180;10135;50.702;7.276;2024-03-02T16:56:20;97868.00;;;17.00
19948;BMP180;10135;50.702;7.276;2024-03-02T16:58:20;97855.00;;;16.90
19948;BMP180;10135;50.702;7.276;2024-03-02T17:00:21;97871.00;;;16.90
19948;BMP180;10135;50.702;7.276;2024-03-02T17:02:22;97877.00;;;16.90
19948;BMP180;10135;50.702;7.276;2024-03-02T17:04:25;97873.00;;;16.90
19948;BMP180;10135;50.702;7.276;2024-03-02T17:06:27;97875.00;;;16.80
19948;BMP180;10135;50.702;7.276;2024-03-02T17:08:27;97886.00;;;16.80
19948;BMP180;10135;50.702;7.276;2024-03-02T17:10:28;97883.00;;;16.80
19948;BMP180;10135;50.702;7.276;2024-03-02T17:12:28;97891.00;;;16.80
19948;BMP180;10135;50.702;7.276;2024-03-02T17:14:29;97890.00;;;16.80
19948;BMP180;10135;50.702;7.276;2024-03-02T17:16:30;97884.00;;;16.80
19948;BMP180;10135;50.702;7.276;2024-03-02T17:18:30;97890.00;;;16.80
19948;BMP180;10135;50.702;7.276;2024-03-02T17:20:31;97893.00;;;16.80
19948;BMP180;10135;50.702;7.276;2024-03-02T17:22:31;97889.00;;;16.70
19948;BMP180;10135;50.702;7.276;2024-03-02T17:24:32;97892.00;;;16.70
19948;BMP180;10135;50.702;7.276;2024-03-02T17:26:33;97905.00;;;16.70
19948;BMP180;10135;50.702;7.276;2024-03-02T17:28:33;97903.00;;;16.70
19948;BMP180;10135;50.702;7.276;2024-03-02T17:30:34;97910.00;;;16.70
19948;BMP180;10135;50.702;7.276;2024-03-02T17:32:35;97906.00;;;16.70
19948;BMP180;10135;50.702;7.276;2024-03-02T17:34:36;97905.00;;;16.70
19948;BMP180;10135;50.702;7.276;2024-03-02T17:36:36;97908.00;;;16.70
19948;BMP180;10135;50.702;7.276;2024-03-02T17:38:37;97915.00;;;16.70
19948;BMP180;10135;50.702;7.276;2024-03-02T17:40:37;97910.00;;;16.60
19948;BMP180;10135;50.702;7.276;2024-03-02T17:42:38;97915.00;;;16.60
19948;BMP180;10135;50.702;7.276;2024-03-02T17:44:39;97920.00;;;16.60
19948;BMP180;10135;50.702;7.276;2024-03-02T17:46:39;97913.00;;;16.60
19948;BMP180;10135;50.702;7.276;2024-03-02T17:48:40;97916.00;;;16.60
19948;BMP180;10135;50.702;7.276;2024-03-02T17:50:41;97913.00;;;16.60
19948;BMP180;10135;50.702;7.276;2024-03-02T17:52:41;97925.00;;;16.60
19948;BMP180;10135;50.702;7.276;2024-03-02T17:54:42;97922.00;;;16.60
19948;BMP180;10135;50.702;7.276;2024-03-02T17:56:43;97919.00;;;16.60
19948;BMP180;10135;50.702;7.276;2024-03-02T17:58:43;97922.00;;;16.60
19948;BMP180;10135;50.702;7.276;2024-03-02T18:00:44;97914.00;;;16.60
19948;BMP180;10135;50.702;7.276;2024-03-02T18:02:47;97924.00;;;16.60
19948;BMP180;10135;50.702;7.276;2024-03-02T18:04:47;97922.00;;;16.50
19948;BMP180;10135;50.702;7.276;2024-03-02T18:06:48;97919.00;;;16.50
19948;BMP180;10135;50.702;7.276;2024-03-02T18:08:49;97925.00;;;16.50
19948;BMP180;10135;50.702;7.276;2024-03-02T18:10:49;97919.00;;;16.50
19948;BMP180;10135;50.702;7.276;2024-03-02T18:12:50;97923.00;;;16.50